• Join FlightAware (Why Join?)
  • Login
  • US Flag 
01:34PM EDT


 

Airport Tracker/Info


-or-


 

Live Flight TrackerFlight Track Log ✈ FLG4262 ✈ 20-Sep-2013 ✈ KDTW - KBGM

Flight Track Log - Related Links

Times and Time Zones

All times are in EDT time to prevent confusion due to time zone crossing. See the FLG4262 flight status page for this flight to view local times or setup timezone preferences in your user account.

Time Position Orientation Groundspeed Altitude Reporting Facility
EDT Latitude Longitude Course Direction KTS MPH feet Rate Location/Type
03:58PM 42.2039 -83.3697 83° East 168 193 1,100  Level Cleveland Center
03:59PM 42.1631 -83.3808 191° South 207 238 2,800 2,100 Climbing Cleveland Center
04:00PM 42.1331 -83.3739 170° South 213 245 4,300 1,980 Climbing Cleveland Center
04:00PM 42.1064 -83.3558 153° Southeast 258 297 4,900 2,340 Climbing Cleveland Center
04:01PM 42.2261 -82.8901 82° East  Level Estimated
04:01PM 42.0753 -83.2992 126° Southeast 283 326 6,800  Level Cleveland Center
04:01PM 42.0731 -83.2725 96° East 292 336 7,600 2,400 Climbing Cleveland Center
04:02PM 42.2302 -82.7356 90° East  Level Estimated
04:02PM 42.0678 -83.1925 95° East 288 331 9,300  Level Cleveland Center
04:02PM 42.0661 -83.1703 96° East 294 338 9,700 960 Climbing Cleveland Center
04:03PM 42.2342 -82.5811 94° East  Level Estimated
04:03PM 42.0664 -83.0731 90° East 326 375 10,300  Level Cleveland Center
04:04PM 42.2467 -82.4345 83° East  Level FlightAware Approximate
04:04PM 42.1189 -82.9519 60° Northeast 387 445 11,700  Level Cleveland Center
04:05PM 42.1797 -82.8333 55° Northeast 389 448 13,300 1,500 Climbing Cleveland Center
04:06PM 42.2517 -82.6844 57° Northeast 397 457 14,900 1,440 Climbing Cleveland Center
04:07PM 42.3147 -82.5614 55° Northeast 400 460 16,300 1,260 Climbing Cleveland Center
04:08PM 42.3642 -82.4292 63° Northeast 404 465 17,600 960 Climbing Cleveland Center
04:09PM 42.3600 -82.2800 92° East 397 457 18,400 780 Climbing Cleveland Center
04:10PM 42.3542 -82.1119 93° East 407 468 19,300 720 Climbing Cleveland Center
04:11PM 42.3469 -81.9539 93° East 415 478 20,000 540 Climbing Cleveland Center
04:12PM 42.3400 -81.7936 93° East 421 484 20,500 480 Climbing Cleveland Center
04:13PM 42.3325 -81.6308 94° East 428 493 21,000 480 Climbing Cleveland Center
04:14PM 42.3244 -81.4658 94° East 433 498 21,500 480 Climbing Cleveland Center
04:15PM 42.3150 -81.2736 94° East 435 501 22,100 480 Climbing Cleveland Center
04:16PM 42.3072 -81.1072 94° East 438 504 22,600 720 Climbing Cleveland Center
04:17PM 42.2975 -80.9414 94° East 438 504 23,600 960 Climbing Cleveland Center
04:18PM 42.2897 -80.7778 94° East 435 501 24,600 660 Climbing Cleveland Center
04:19PM 42.2808 -80.6183 94° East 424 488 25,000 180 Climbing Cleveland Center
04:20PM 42.2719 -80.4525 94° East 437 503 25,000  Level Cleveland Center
04:21PM 42.2642 -80.2806 93° East 451 519 25,000 -480 Level Cleveland Center
04:22PM 42.2700 -80.1033 87° East 469 540 24,000 -540 Descending Cleveland Center
04:24PM 42.2697 -79.9206 90° East 476 548 24,000  Level Cleveland Center
04:25PM 42.2700 -79.7108 90° East 470 541 24,000  Level Cleveland Center
04:26PM 42.2692 -79.5378 90° East 466 536 24,000  Level Cleveland Center
04:27PM 42.2692 -79.3658 90° East 461 531 24,000  Level Cleveland Center
04:28PM 42.2689 -79.1942 90° East 462 532 24,000  Level Cleveland Center
04:29PM 42.2672 -79.0225 91° East 461 531 24,000  Level Cleveland Center
04:30PM 42.2664 -78.8369 90° East 460 529 24,000  Level Cleveland Center
04:31PM 42.2647 -78.6658 91° East 459 528 24,000  Level Cleveland Center
04:32PM 42.2631 -78.4600 91° East 459 528 24,000  Level Cleveland Center
04:33PM 42.2608 -78.2886 91° East 459 528 24,000  Level Cleveland Center
04:34PM 42.2592 -78.1183 91° East 458 527 24,000  Level Cleveland Center
04:35PM 42.2561 -77.9486 91° East 458 527 24,000  Level Cleveland Center
04:36PM 42.2533 -77.7797 91° East 457 526 24,000  Level Cleveland Center
04:37PM 42.2506 -77.5775 91° East 456 525 24,000 -360 Level Cleveland Center
04:38PM 42.2464 -77.4086 92° East 456 525 23,300 -840 Descending Cleveland Center
04:39PM 42.2428 -77.2367 92° East 462 532 22,300 -960 Descending Cleveland Center
04:40PM 42.2378 -77.0617 92° East 455 524 21,300 -1,200 Descending New York Center
04:41PM 42.2339 -76.8989 92° East 443 510 19,800 -2,340 Descending New York Center
04:42PM 42.2300 -76.7275 92° East 435 501 16,700 -3,060 Descending New York Center
04:43PM 42.2369 -76.5881 86° East 398 458 13,700 -2,820 Descending New York Center
04:44PM 42.2447 -76.4683 85° East 354 407 11,100 -2,520 Descending New York Center
04:46PM 42.2000 -76.2861 90° East  Level FlightAware Approximate
04:46PM 42.2981 -76.2656 90° East 288 331 6,100  Level New York Center
04:47PM 42.3244 -76.1864 66° East 264 304 3,900 -1,440 Descending New York Center
04:48PM 42.3267 -76.0942 88° East 244 281 3,300 -300 Descending New York Center
04:49PM 42.2911 -76.0519 139° Southeast 160 184 3,300 -300 Level New York Center
04:50PM 42.2589 -76.0242 147° Southeast 148 170 2,700 -600 Descending New York Center
04:51PM 42.2314 -75.9883 136° Southeast 142 163 2,200 -540 Descending New York Center